createdAt,value
2022-09-20T00:01:42.400Z,6.03
2022-09-20T00:04:11.326Z,6.67
2022-09-20T00:06:39.644Z,4.70
2022-09-20T00:09:07.894Z,5.13
2022-09-20T00:11:38.329Z,4.33
2022-09-20T00:14:09.514Z,5.23
2022-09-20T00:16:41.424Z,5.97
2022-09-20T00:19:16.227Z,6.87
2022-09-20T00:21:44.784Z,6.63
2022-09-20T00:24:13.745Z,5.17
2022-09-20T00:26:43.605Z,4.50
2022-09-20T00:29:13.287Z,6.27
2022-09-20T00:31:43.020Z,7.50
2022-09-20T00:34:29.938Z,4.83
2022-09-20T00:36:58.256Z,6.10
2022-09-20T00:39:27.108Z,5.47
2022-09-20T00:41:56.734Z,4.97
2022-09-20T00:44:45.483Z,6.13
2022-09-20T00:47:20.597Z,6.07
2022-09-20T00:49:49.729Z,5.13
2022-09-20T00:52:19.364Z,8.67
2022-09-20T00:54:48.141Z,7.30
2022-09-20T00:57:18.452Z,6.37
2022-09-20T00:59:50.121Z,6.63
2022-09-20T01:02:21.445Z,7.07
2022-09-20T01:04:50.651Z,9.53
2022-09-20T01:07:23.415Z,6.97
2022-09-20T01:09:52.398Z,8.47
2022-09-20T01:12:24.561Z,8.80
2022-09-20T01:14:54.608Z,7.17
2022-09-20T01:17:26.023Z,8.77
2022-09-20T01:20:08.788Z,7.80
2022-09-20T01:23:00.023Z,8.07
2022-09-20T01:25:49.887Z,7.43
2022-09-20T01:28:19.771Z,10.33
2022-09-20T01:30:53.355Z,6.87
2022-09-20T01:33:29.656Z,9.90
2022-09-20T01:36:02.252Z,8.40
2022-09-20T01:38:39.705Z,7.00
2022-09-20T01:41:13.237Z,8.73
2022-09-20T01:43:49.601Z,9.20
2022-09-20T01:46:30.070Z,10.73
2022-09-20T01:49:10.724Z,7.47
2022-09-20T01:52:02.964Z,10.63
2022-09-20T01:55:13.677Z,8.60
2022-09-20T01:58:27.097Z,8.63
2022-09-20T02:01:34.993Z,8.10
2022-09-20T02:04:32.953Z,9.23
2022-09-20T02:07:15.991Z,8.83
2022-09-20T02:10:12.713Z,10.30
2022-09-20T02:12:54.261Z,8.63
2022-09-20T02:15:42.445Z,9.53
2022-09-20T02:18:27.319Z,7.23
2022-09-20T02:21:02.222Z,9.67
2022-09-20T02:23:41.773Z,8.70
2022-09-20T02:26:44.271Z,7.80
2022-09-20T02:29:30.973Z,9.73
2022-09-20T02:32:16.246Z,9.57
2022-09-20T02:35:26.783Z,8.20
2022-09-20T02:38:19.774Z,7.73
2022-09-20T02:41:15.202Z,9.50
2022-09-20T02:43:53.008Z,8.73
2022-09-20T02:46:28.788Z,7.57
2022-09-20T02:49:04.245Z,8.43
2022-09-20T02:51:40.891Z,9.90
2022-09-20T02:54:23.335Z,8.03
2022-09-20T02:56:59.739Z,8.73
2022-09-20T02:59:40.292Z,9.07
2022-09-20T03:02:19.524Z,10.00
2022-09-20T03:04:59.733Z,12.47
2022-09-20T03:07:36.312Z,9.77
2022-09-20T03:10:15.343Z,11.23
2022-09-20T03:12:56.220Z,9.57
2022-09-20T03:15:32.773Z,9.97
2022-09-20T03:18:09.420Z,12.07
2022-09-20T03:20:49.163Z,11.47
2022-09-20T03:23:36.828Z,11.60
2022-09-20T03:26:15.088Z,8.70
2022-09-20T03:29:00.629Z,7.93
2022-09-20T03:31:50.808Z,8.53
2022-09-20T03:34:36.268Z,9.00
2022-09-20T03:37:24.337Z,8.50
2022-09-20T03:40:19.661Z,7.73
2022-09-20T03:42:50.386Z,10.13
2022-09-20T03:45:48.096Z,8.33
2022-09-20T03:48:48.200Z,12.57
2022-09-20T03:51:33.607Z,8.07
2022-09-20T03:54:33.108Z,12.10
2022-09-20T03:57:36.345Z,9.47
2022-09-20T04:00:23.616Z,10.33
2022-09-20T04:03:12.098Z,10.40
2022-09-20T04:05:52.675Z,8.60
2022-09-20T04:08:40.361Z,7.60
2022-09-20T04:11:19.192Z,8.73
2022-09-20T04:13:55.974Z,8.93
2022-09-20T04:16:33.442Z,8.97
2022-09-20T04:19:11.612Z,9.27
2022-09-20T04:21:49.608Z,7.47
2022-09-20T04:24:24.012Z,9.33
2022-09-20T04:26:58.548Z,8.90
2022-09-20T04:29:39.242Z,8.50
2022-09-20T04:32:16.763Z,8.40
2022-09-20T04:35:07.145Z,7.97
2022-09-20T04:37:38.542Z,8.83
2022-09-20T04:40:19.580Z,10.40
2022-09-20T04:43:29.139Z,10.77
2022-09-20T04:46:36.613Z,10.77
2022-09-20T04:49:44.091Z,11.50
2022-09-20T04:52:47.878Z,9.10
2022-09-20T04:55:50.192Z,8.73
2022-09-20T04:58:39.648Z,11.03
2022-09-20T05:01:40.417Z,10.90
2022-09-20T05:04:59.081Z,10.50
2022-09-20T05:08:10.820Z,10.10
2022-09-20T05:11:14.962Z,10.30
2022-09-20T05:14:02.487Z,10.57
2022-09-20T05:16:44.213Z,8.80
2022-09-20T05:19:30.852Z,12.97
2022-09-20T05:22:19.210Z,12.10
2022-09-20T05:25:11.189Z,11.83
2022-09-20T05:27:46.629Z,8.67
2022-09-20T05:30:24.875Z,9.67
2022-09-20T05:33:05.766Z,7.73
2022-09-20T05:35:43.332Z,10.23
2022-09-20T05:38:18.740Z,8.40
2022-09-20T05:41:04.416Z,9.00
2022-09-20T05:43:35.216Z,9.47
2022-09-20T05:46:17.756Z,7.90
2022-09-20T05:48:56.320Z,8.30
2022-09-20T05:51:55.860Z,8.47
2022-09-20T05:54:49.846Z,9.30
2022-09-20T05:57:30.018Z,7.67
2022-09-20T06:00:04.568Z,9.53
2022-09-20T06:02:49.067Z,7.63
2022-09-20T06:05:22.035Z,8.53
2022-09-20T06:08:06.155Z,7.87
2022-09-20T06:10:52.943Z,9.17
2022-09-20T06:13:59.755Z,9.87
2022-09-20T06:16:38.141Z,8.30
2022-09-20T06:19:16.887Z,10.37
2022-09-20T06:21:52.634Z,11.03
2022-09-20T06:24:33.181Z,12.93
2022-09-20T06:27:05.799Z,12.77
2022-09-20T06:29:37.517Z,14.17
2022-09-20T06:32:06.109Z,10.63
2022-09-20T06:34:34.425Z,14.37
2022-09-20T06:37:29.813Z,11.30
2022-09-20T06:40:29.020Z,14.37
2022-09-20T06:43:00.374Z,15.67
2022-09-20T06:45:29.108Z,14.47
2022-09-20T06:47:57.629Z,11.80
2022-09-20T06:50:25.960Z,14.23
2022-09-20T06:52:55.148Z,13.20
2022-09-20T06:55:30.377Z,13.67
2022-09-20T06:57:58.859Z,12.93
2022-09-20T07:00:27.199Z,14.00
2022-09-20T07:02:56.768Z,10.20
2022-09-20T07:05:26.639Z,13.10
2022-09-20T07:07:58.711Z,10.23
2022-09-20T07:10:29.186Z,7.43
2022-09-20T07:13:00.509Z,9.40
2022-09-20T07:15:29.276Z,10.00
2022-09-20T07:18:00.219Z,9.87
2022-09-20T07:20:29.300Z,10.87
2022-09-20T07:22:57.755Z,9.63
2022-09-20T07:25:26.060Z,11.27
2022-09-20T07:27:55.729Z,9.70
2022-09-20T07:30:24.888Z,13.03
2022-09-20T07:32:53.675Z,9.07
2022-09-20T07:35:22.427Z,11.37
2022-09-20T07:37:57.666Z,10.93
2022-09-20T07:40:27.494Z,12.63
2022-09-20T07:42:59.005Z,11.17
2022-09-20T07:45:27.567Z,12.87
2022-09-20T07:47:55.875Z,9.47
2022-09-20T07:50:24.630Z,11.73
2022-09-20T07:52:52.923Z,10.13
2022-09-20T07:55:21.297Z,10.40
2022-09-20T07:57:49.661Z,8.93
2022-09-20T08:00:19.587Z,9.50
2022-09-20T08:02:47.895Z,12.40
2022-09-20T08:05:16.354Z,9.70
2022-09-20T08:07:44.781Z,10.67
2022-09-20T08:10:13.063Z,8.33
2022-09-20T08:15:31.837Z,8.87
2022-09-20T08:18:00.203Z,8.47
2022-09-20T08:20:30.913Z,11.90
2022-09-20T08:23:22.181Z,12.37
2022-09-20T08:25:49.925Z,11.93
2022-09-20T08:28:18.315Z,12.20
2022-09-20T08:30:48.163Z,10.73
2022-09-20T08:33:16.543Z,11.33
2022-09-20T08:35:44.993Z,8.67
2022-09-20T08:41:05.864Z,9.10
2022-09-20T08:43:45.480Z,8.73
2022-09-20T08:46:23.586Z,6.50
2022-09-20T08:48:55.700Z,7.93
2022-09-20T08:51:25.387Z,7.00
2022-09-20T08:53:55.513Z,7.07
2022-09-20T08:56:24.352Z,6.57
2022-09-20T08:58:53.380Z,9.53
2022-09-20T09:01:24.986Z,7.27
2022-09-20T09:03:59.032Z,8.33
2022-09-20T09:06:27.303Z,8.80
2022-09-20T09:09:00.410Z,7.57
2022-09-20T09:11:28.725Z,10.50
2022-09-20T09:14:01.497Z,9.33
2022-09-20T09:16:36.367Z,8.30
2022-09-20T09:19:33.775Z,7.30
2022-09-20T09:22:04.474Z,8.13
2022-09-20T09:24:33.580Z,7.20
2022-09-20T09:27:10.561Z,7.17
2022-09-20T09:29:51.781Z,6.10
2022-09-20T09:32:28.556Z,6.60
2022-09-20T09:34:57.358Z,6.77
2022-09-20T09:37:29.090Z,4.67
2022-09-20T09:40:16.489Z,5.70
2022-09-20T09:42:53.930Z,3.77
2022-09-20T09:45:29.182Z,2.53
2022-09-20T09:48:01.615Z,3.30
2022-09-20T09:50:33.681Z,3.10
2022-09-20T09:53:07.108Z,4.47
2022-09-20T09:55:58.093Z,2.50
2022-09-20T09:58:39.203Z,3.07
2022-09-20T10:01:30.030Z,1.83
2022-09-20T10:04:10.861Z,3.47
2022-09-20T10:06:50.524Z,4.23
2022-09-20T10:09:37.351Z,2.60
2022-09-20T10:12:19.772Z,3.10
2022-09-20T10:15:04.186Z,2.33
2022-09-20T10:17:51.899Z,1.97
2022-09-20T10:20:53.237Z,1.93
2022-09-20T10:24:03.330Z,2.90
2022-09-20T10:26:40.381Z,1.87
2022-09-20T10:29:17.054Z,4.77
2022-09-20T10:31:57.372Z,1.55
2022-09-20T10:35:09.361Z,3.93
2022-09-20T10:37:51.029Z,1.92
2022-09-20T10:40:50.621Z,1.73
2022-09-20T10:43:31.093Z,2.45
2022-09-20T10:46:31.390Z,1.67
2022-09-20T10:49:05.797Z,1.80
2022-09-20T10:51:45.672Z,1.33
2022-09-20T10:54:30.233Z,3.00
2022-09-20T10:57:12.496Z,2.53
2022-09-20T10:59:51.363Z,1.88
2022-09-20T11:02:37.265Z,3.70
2022-09-20T11:05:27.277Z,2.33
2022-09-20T11:08:03.320Z,2.35
2022-09-20T11:10:39.211Z,2.92
2022-09-20T11:13:14.715Z,1.98
2022-09-20T11:15:47.088Z,2.50
2022-09-20T11:18:23.445Z,1.65
2022-09-20T11:20:59.367Z,3.33
2022-09-20T11:23:34.948Z,1.67
2022-09-20T11:26:11.623Z,2.47
2022-09-20T11:28:43.478Z,1.77
2022-09-20T11:31:19.264Z,1.73
2022-09-20T11:33:53.316Z,2.57
2022-09-20T11:36:28.438Z,2.33
2022-09-20T11:39:03.246Z,2.33
2022-09-20T11:41:33.679Z,4.30
2022-09-20T11:44:08.614Z,3.47
2022-09-20T11:46:43.601Z,0.80
2022-09-20T11:49:17.604Z,2.27
2022-09-20T11:52:12.367Z,1.63
2022-09-20T11:55:16.342Z,1.67
2022-09-20T11:57:46.818Z,7.27
2022-09-20T12:00:17.772Z,2.00
2022-09-20T12:02:49.472Z,4.60
2022-09-20T12:05:32.239Z,2.07
2022-09-20T12:08:02.571Z,1.30
2022-09-20T12:10:35.315Z,4.07
2022-09-20T12:13:06.964Z,4.73
2022-09-20T12:15:39.069Z,4.10
2022-09-20T12:18:35.572Z,2.80
2022-09-20T12:21:17.372Z,5.60
2022-09-20T12:24:02.706Z,1.90
2022-09-20T12:26:44.662Z,3.28
2022-09-20T12:29:55.288Z,4.20
2022-09-20T12:32:52.034Z,3.77
2022-09-20T12:35:59.835Z,3.40
2022-09-20T12:38:37.639Z,3.50
2022-09-20T12:41:14.146Z,3.63
2022-09-20T12:43:54.494Z,2.17
2022-09-20T12:46:28.003Z,1.23
2022-09-20T12:49:52.575Z,2.80
2022-09-20T12:52:49.899Z,2.75
2022-09-20T12:55:34.515Z,2.22
2022-09-20T12:58:06.163Z,2.88
2022-09-20T13:00:39.137Z,3.40
2022-09-20T13:03:27.174Z,1.92
2022-09-20T13:06:23.489Z,1.75
2022-09-20T13:08:59.284Z,3.42
2022-09-20T13:11:31.770Z,3.88
2022-09-20T13:14:04.830Z,2.10
2022-09-20T13:16:40.744Z,2.05
2022-09-20T13:19:16.442Z,1.13
2022-09-20T13:21:57.693Z,3.45
2022-09-20T13:24:29.277Z,3.55
2022-09-20T13:27:03.512Z,2.45
2022-09-20T13:29:34.386Z,4.55
2022-09-20T13:32:17.369Z,2.45
2022-09-20T13:34:46.691Z,2.92
2022-09-20T13:37:23.488Z,3.80
2022-09-20T13:39:56.339Z,2.22
2022-09-20T13:42:24.828Z,2.85
2022-09-20T13:44:53.589Z,2.88
2022-09-20T13:47:24.496Z,2.15
2022-09-20T13:49:53.246Z,2.13
2022-09-20T13:52:27.848Z,2.03
2022-09-20T13:54:57.968Z,2.40
2022-09-20T13:57:29.655Z,3.63
2022-09-20T13:59:58.408Z,1.92
2022-09-20T14:02:30.692Z,2.80
2022-09-20T14:05:01.620Z,1.05
2022-09-20T14:07:31.146Z,2.13
2022-09-20T14:10:01.251Z,1.77
2022-09-20T14:12:30.086Z,3.60
2022-09-20T14:14:59.485Z,4.50
2022-09-20T14:17:32.676Z,2.03
2022-09-20T14:20:01.267Z,3.10
2022-09-20T14:22:30.262Z,5.37
2022-09-20T14:25:02.736Z,3.20
2022-09-20T14:27:32.736Z,2.90
2022-09-20T14:30:01.301Z,4.57
2022-09-20T14:32:38.481Z,2.63
2022-09-20T14:35:14.573Z,3.90
2022-09-20T14:37:46.328Z,3.77
2022-09-20T14:40:23.793Z,1.40
2022-09-20T14:42:55.839Z,1.05
2022-09-20T14:45:28.496Z,2.17
2022-09-20T14:48:00.833Z,2.08
2022-09-20T14:50:31.252Z,2.45
2022-09-20T14:53:21.551Z,2.75
2022-09-20T14:55:59.626Z,0.88
2022-09-20T14:58:28.022Z,1.85
2022-09-20T15:01:01.394Z,2.30
2022-09-20T15:03:32.951Z,2.83
2022-09-20T15:06:01.582Z,2.03
2022-09-20T15:08:30.164Z,3.40
2022-09-20T15:11:00.429Z,2.22
2022-09-20T15:13:28.806Z,3.03
2022-09-20T15:15:57.858Z,1.58
2022-09-20T15:18:29.155Z,3.78
2022-09-20T15:20:58.222Z,1.00
2022-09-20T15:23:26.531Z,1.30
2022-09-20T15:25:56.414Z,2.05
2022-09-20T15:28:26.895Z,2.70
2022-09-20T15:30:55.265Z,1.20
2022-09-20T15:33:23.553Z,0.68
2022-09-20T15:35:51.930Z,1.95
2022-09-20T15:38:20.626Z,0.90
2022-09-20T15:40:50.865Z,2.60
2022-09-20T15:43:21.998Z,1.05
2022-09-20T15:45:54.891Z,1.85
2022-09-20T15:48:25.564Z,2.80
2022-09-20T15:51:12.638Z,1.35
2022-09-20T15:53:44.967Z,1.63
2022-09-20T15:56:17.757Z,3.15
2022-09-20T15:58:48.638Z,1.48
2022-09-20T16:01:19.715Z,2.38
2022-09-20T16:03:49.016Z,1.05
2022-09-20T16:06:17.643Z,2.83
2022-09-20T16:08:46.279Z,2.57
2022-09-20T16:11:20.428Z,2.45
2022-09-20T16:13:54.472Z,2.53
2022-09-20T16:16:24.553Z,2.23
2022-09-20T16:19:12.735Z,2.60
2022-09-20T16:21:43.292Z,2.83
2022-09-20T16:24:13.359Z,3.63
2022-09-20T16:26:41.864Z,2.07
2022-09-20T16:29:11.752Z,4.80
2022-09-20T16:31:42.980Z,3.57
2022-09-20T16:34:16.963Z,3.17
2022-09-20T16:36:45.527Z,2.87
2022-09-20T16:39:15.299Z,4.07
2022-09-20T16:41:44.533Z,3.47
2022-09-20T16:44:13.165Z,4.43
2022-09-20T16:46:44.592Z,4.13
2022-09-20T16:49:14.241Z,1.70
2022-09-20T16:51:43.833Z,4.17
2022-09-20T16:54:13.586Z,2.73
2022-09-20T16:56:44.635Z,2.17
2022-09-20T16:59:14.040Z,5.07
2022-09-20T17:01:47.107Z,3.30
2022-09-20T17:04:17.953Z,3.67
2022-09-20T17:06:47.175Z,3.23
2022-09-20T17:09:16.637Z,3.90
2022-09-20T17:11:47.141Z,5.23
2022-09-20T17:14:17.290Z,4.87
2022-09-20T17:16:48.131Z,7.00
2022-09-20T17:19:18.525Z,6.03
2022-09-20T17:21:50.743Z,5.10
2022-09-20T17:24:20.077Z,3.30
2022-09-20T17:26:50.470Z,3.90
2022-09-20T17:29:20.438Z,4.73
2022-09-20T17:31:55.614Z,4.30
2022-09-20T17:34:26.389Z,3.70
2022-09-20T17:36:55.569Z,6.43
2022-09-20T17:39:24.449Z,3.47
2022-09-20T17:41:53.013Z,4.63
2022-09-20T17:44:21.337Z,7.80
2022-09-20T17:46:53.979Z,4.97
2022-09-20T17:49:23.946Z,5.17
2022-09-20T17:51:53.705Z,2.80
2022-09-20T17:54:22.615Z,2.87
2022-09-20T17:56:53.315Z,5.03
2022-09-20T17:59:22.191Z,4.40
2022-09-20T18:01:54.361Z,3.00
2022-09-20T18:04:24.638Z,3.73
2022-09-20T18:06:54.194Z,5.37
2022-09-20T18:09:24.356Z,3.90
2022-09-20T18:11:54.181Z,4.83
2022-09-20T18:14:24.267Z,6.97
2022-09-20T18:16:55.475Z,8.80
2022-09-20T18:19:24.675Z,3.63
2022-09-20T18:21:53.113Z,6.93
2022-09-20T18:24:21.392Z,4.27
2022-09-20T18:26:49.747Z,7.10
2022-09-20T18:29:19.107Z,6.57
2022-09-20T18:31:52.245Z,5.17
2022-09-20T18:34:24.381Z,4.10
2022-09-20T18:36:54.197Z,7.43
2022-09-20T18:39:23.236Z,5.50
2022-09-20T18:41:53.309Z,4.37
2022-09-20T18:44:23.359Z,7.23
2022-09-20T18:46:53.492Z,5.17
2022-09-20T18:49:23.633Z,4.63
2022-09-20T18:51:51.985Z,4.40
2022-09-20T18:54:20.320Z,4.27
2022-09-20T18:56:50.435Z,6.10
2022-09-20T18:59:21.467Z,4.60
2022-09-20T19:02:20.055Z,7.37
2022-09-20T19:05:18.914Z,4.90
2022-09-20T19:07:55.244Z,6.53
2022-09-20T19:10:32.891Z,6.07
2022-09-20T19:13:19.174Z,7.73
2022-09-20T19:16:11.567Z,6.17
2022-09-20T19:19:09.523Z,6.17
2022-09-20T19:21:46.042Z,6.90
2022-09-20T19:24:26.550Z,5.90
2022-09-20T19:26:55.234Z,5.10
2022-09-20T19:29:26.852Z,5.60
2022-09-20T19:31:57.202Z,7.60
2022-09-20T19:34:27.606Z,6.57
2022-09-20T19:37:08.222Z,6.20
2022-09-20T19:39:54.927Z,5.30
2022-09-20T19:42:36.243Z,6.07
2022-09-20T19:45:15.479Z,7.20
2022-09-20T19:47:52.043Z,7.77
2022-09-20T19:50:29.533Z,6.93
2022-09-20T19:53:01.931Z,6.93
2022-09-20T19:55:31.323Z,8.33
2022-09-20T19:58:00.194Z,6.80
2022-09-20T20:00:30.114Z,8.20
2022-09-20T20:02:58.975Z,7.77
2022-09-20T20:05:29.242Z,7.33
2022-09-20T20:08:19.546Z,9.93
2022-09-20T20:10:58.563Z,10.23
2022-09-20T20:13:52.639Z,9.83
2022-09-20T20:16:29.431Z,8.13
2022-09-20T20:19:16.423Z,7.40
2022-09-20T20:21:52.766Z,7.67
2022-09-20T20:24:30.137Z,8.57
2022-09-20T20:26:58.518Z,9.43
2022-09-20T20:29:27.423Z,7.77
2022-09-20T20:31:55.682Z,9.37
2022-09-20T20:34:24.507Z,10.27
2022-09-20T20:36:54.362Z,12.13
2022-09-20T20:39:24.012Z,11.70
2022-09-20T20:41:52.656Z,11.90
2022-09-20T20:44:22.130Z,13.47
2022-09-20T20:46:50.928Z,10.97
2022-09-20T20:49:19.252Z,10.17
2022-09-20T20:51:48.193Z,10.67
2022-09-20T20:54:16.558Z,10.27
2022-09-20T20:56:46.157Z,8.77
2022-09-20T20:59:16.083Z,11.77
2022-09-20T21:01:45.976Z,9.07
2022-09-20T21:04:15.295Z,9.73
2022-09-20T21:06:44.090Z,11.27
2022-09-20T21:09:13.507Z,11.87
2022-09-20T21:11:43.261Z,10.57
2022-09-20T21:14:13.614Z,8.50
2022-09-20T21:16:43.614Z,14.07
2022-09-20T21:19:14.963Z,11.33
2022-09-20T21:21:45.342Z,10.63
2022-09-20T21:24:17.264Z,10.03
2022-09-20T21:26:46.945Z,12.17
2022-09-20T21:29:17.440Z,12.73
2022-09-20T21:31:47.276Z,15.27
2022-09-20T21:34:17.044Z,13.87
2022-09-20T21:36:45.647Z,16.13
2022-09-20T21:39:14.393Z,15.80
2022-09-20T21:41:43.106Z,15.77
2022-09-20T21:44:12.275Z,13.17
2022-09-20T21:46:43.147Z,11.87
2022-09-20T21:49:13.191Z,13.73
2022-09-20T21:51:43.941Z,14.03
2022-09-20T21:54:12.496Z,13.73
2022-09-20T21:56:41.445Z,12.20
2022-09-20T21:59:10.109Z,10.90
2022-09-20T22:01:40.293Z,17.17
2022-09-20T22:04:11.513Z,15.90
2022-09-20T22:06:41.508Z,15.53
2022-09-20T22:09:11.509Z,16.77
2022-09-20T22:11:41.735Z,15.10
2022-09-20T22:14:11.130Z,10.57
2022-09-20T22:16:41.224Z,9.30
2022-09-20T22:19:13.377Z,10.57
2022-09-20T22:21:44.231Z,11.93
2022-09-20T22:24:14.298Z,10.30
2022-09-20T22:26:44.631Z,9.43
2022-09-20T22:29:13.544Z,13.00
2022-09-20T22:31:45.697Z,11.40
2022-09-20T22:34:18.158Z,9.37
2022-09-20T22:36:47.895Z,10.93
2022-09-20T22:39:17.225Z,13.00
2022-09-20T22:41:48.080Z,9.67
2022-09-20T22:44:16.887Z,10.17
2022-09-20T22:46:45.425Z,9.03
2022-09-20T22:49:15.492Z,9.43
2022-09-20T22:51:44.374Z,12.13
2022-09-20T22:54:13.666Z,9.03
2022-09-20T22:56:42.681Z,11.00
2022-09-20T22:59:12.877Z,11.63
2022-09-20T23:01:43.521Z,8.77
2022-09-20T23:04:14.751Z,10.67
2022-09-20T23:06:47.920Z,10.53
2022-09-20T23:09:18.555Z,11.07
2022-09-20T23:11:47.726Z,11.67
2022-09-20T23:14:18.830Z,13.17
2022-09-20T23:16:48.459Z,11.60
2022-09-20T23:19:17.496Z,11.50
2022-09-20T23:21:47.619Z,10.37
2022-09-20T23:24:17.255Z,10.60
2022-09-20T23:26:46.364Z,9.97
2022-09-20T23:29:16.406Z,7.53
2022-09-20T23:31:47.395Z,8.43
2022-09-20T23:34:17.461Z,8.60
2022-09-20T23:36:47.691Z,8.77
2022-09-20T23:39:16.812Z,8.67
2022-09-20T23:41:50.714Z,11.13
2022-09-20T23:44:20.392Z,10.87
2022-09-20T23:46:48.965Z,9.77
2022-09-20T23:49:17.633Z,10.70
2022-09-20T23:51:47.688Z,9.53
2022-09-20T23:54:16.460Z,7.77
2022-09-20T23:56:45.041Z,10.20
2022-09-20T23:59:13.665Z,11.13
